createdAt,value
2018-07-23T07:18:21.753Z,67.30
2018-07-23T07:45:35.847Z,66.50
2018-07-23T07:48:10.689Z,66.60
2018-07-23T07:50:39.301Z,66.60
2018-07-23T07:53:07.820Z,66.50
2018-07-23T07:55:36.369Z,66.20
2018-07-23T07:58:04.896Z,65.90
2018-07-23T08:00:33.302Z,65.70
2018-07-23T08:03:05.117Z,65.50
2018-07-23T08:05:35.422Z,65.40
2018-07-23T08:08:08.552Z,65.20
2018-07-23T08:10:37.018Z,65.10
2018-07-23T08:13:05.471Z,64.90
2018-07-23T08:15:33.930Z,64.80
2018-07-23T08:18:02.792Z,64.80
2018-07-23T08:20:31.205Z,64.70
2018-07-23T08:22:59.700Z,64.60
2018-07-23T08:25:28.873Z,64.50
2018-07-23T08:27:57.403Z,64.30
2018-07-23T08:30:26.096Z,64.40
2018-07-23T08:32:54.432Z,64.20
2018-07-23T08:35:24.423Z,64.00
2018-07-23T08:37:52.916Z,64.00
2018-07-23T08:40:28.057Z,64.00
2018-07-23T08:42:59.376Z,63.90
2018-07-23T08:45:27.690Z,63.60
2018-07-23T08:47:58.685Z,63.70
2018-07-23T08:50:32.050Z,63.50
2018-07-23T08:53:01.601Z,63.50
2018-07-23T08:55:31.068Z,63.40
2018-07-23T08:57:59.493Z,63.20
2018-07-23T09:00:27.921Z,63.10
2018-07-23T09:02:56.538Z,62.30
2018-07-23T09:05:24.932Z,62.60
2018-07-23T09:07:53.496Z,62.80
2018-07-23T09:10:21.992Z,62.60
2018-07-23T09:12:50.488Z,62.30
2018-07-23T09:15:21.993Z,62.10
2018-07-23T09:17:51.117Z,61.90
2018-07-23T09:20:19.771Z,61.90
2018-07-23T09:22:48.207Z,61.80
2018-07-23T09:25:16.633Z,61.60
2018-07-23T09:27:45.253Z,61.60
2018-07-23T09:30:19.206Z,61.30
2018-07-23T09:32:47.841Z,61.30
2018-07-23T09:35:16.379Z,61.30
2018-07-23T09:37:44.840Z,61.30
2018-07-23T09:40:13.327Z,61.30
2018-07-23T09:42:41.732Z,61.30
2018-07-23T09:45:10.217Z,61.30
2018-07-23T09:47:38.725Z,61.50
2018-07-23T09:50:07.194Z,61.10
2018-07-23T09:52:35.705Z,61.20
2018-07-23T09:55:07.758Z,61.10
2018-07-23T09:57:39.055Z,60.90
2018-07-23T10:00:17.277Z,60.80
2018-07-23T10:03:01.755Z,61.00
2018-07-23T10:05:30.120Z,61.10
2018-07-23T10:08:11.003Z,61.10
2018-07-23T10:10:41.046Z,60.80
2018-07-23T10:13:32.998Z,60.90
2018-07-23T10:16:01.534Z,60.80
2018-07-23T10:18:32.478Z,60.70
2018-07-23T10:21:02.403Z,60.60
2018-07-23T10:23:31.324Z,60.10
2018-07-23T10:26:05.845Z,60.30
2018-07-23T10:28:34.248Z,60.30
2018-07-23T10:31:02.676Z,60.30
2018-07-23T10:33:31.473Z,60.20
2018-07-23T10:38:29.084Z,60.00
2018-07-23T10:40:57.588Z,60.00
2018-07-23T10:43:25.965Z,59.70
2018-07-23T10:45:55.081Z,59.70
2018-07-23T10:48:23.467Z,59.90
2018-07-23T10:50:52.885Z,59.70
2018-07-23T10:53:21.375Z,59.50
2018-07-23T10:55:49.801Z,59.30
2018-07-23T10:58:18.209Z,59.30
2018-07-23T11:00:46.768Z,59.50
2018-07-23T11:03:15.164Z,59.30
2018-07-23T11:05:43.641Z,59.10
2018-07-23T11:08:13.597Z,58.70
2018-07-23T11:10:42.792Z,59.30
2018-07-23T11:13:12.379Z,58.60
2018-07-23T11:15:40.831Z,58.30
2018-07-23T11:18:16.925Z,58.30
2018-07-23T11:23:13.773Z,58.90
2018-07-23T11:25:42.313Z,59.10
2018-07-23T11:28:10.931Z,59.30
2018-07-23T11:30:39.333Z,59.30
2018-07-23T11:33:07.843Z,59.00
2018-07-23T11:35:36.238Z,59.20
2018-07-23T11:38:04.777Z,58.90
2018-07-23T11:40:33.127Z,58.70
2018-07-23T11:43:01.632Z,58.40
2018-07-23T11:45:31.055Z,58.10
2018-07-23T11:47:59.531Z,57.70
2018-07-23T11:50:28.161Z,57.80
2018-07-23T11:52:57.996Z,57.50
2018-07-23T11:55:26.506Z,57.10
2018-07-23T11:57:55.909Z,56.80
2018-07-23T12:00:24.494Z,56.70
2018-07-23T12:02:53.019Z,56.60
2018-07-23T12:05:22.460Z,56.80
2018-07-23T12:07:50.868Z,56.70
2018-07-23T12:10:19.309Z,56.70
2018-07-23T12:12:48.616Z,56.80
2018-07-23T12:15:17.671Z,57.10
2018-07-23T12:17:46.157Z,57.00
2018-07-23T12:20:14.683Z,57.20
2018-07-23T12:22:46.071Z,57.20
2018-07-23T12:25:24.683Z,57.50
2018-07-23T12:28:26.558Z,57.50
2018-07-23T12:30:55.496Z,56.80
2018-07-23T12:33:23.937Z,56.40
2018-07-23T12:36:02.091Z,56.30
2018-07-23T12:38:32.159Z,56.40
2018-07-23T12:41:05.133Z,56.40
2018-07-23T12:43:33.752Z,56.20
2018-07-23T12:46:03.431Z,55.60
2018-07-23T12:51:01.164Z,55.50
2018-07-23T12:53:30.719Z,55.20
2018-07-23T12:55:59.664Z,55.50
2018-07-23T12:58:28.229Z,55.40
2018-07-23T13:00:58.459Z,56.00
2018-07-23T13:03:26.987Z,56.10
2018-07-23T13:05:55.443Z,56.00
2018-07-23T13:08:24.073Z,55.50
2018-07-23T13:10:52.468Z,54.80
2018-07-23T13:13:30.209Z,55.00
2018-07-23T13:15:58.693Z,55.30
2018-07-23T13:18:27.123Z,55.00
2018-07-23T13:20:55.550Z,55.60
2018-07-23T13:23:24.105Z,55.60
2018-07-23T13:25:52.641Z,55.40
2018-07-23T13:28:21.198Z,55.20
2018-07-23T13:30:49.674Z,55.20
2018-07-23T13:33:18.872Z,55.40
2018-07-23T13:35:47.314Z,55.30
2018-07-23T13:38:15.836Z,55.20
2018-07-23T13:40:44.199Z,55.10
2018-07-23T13:43:12.833Z,54.90
2018-07-23T13:45:41.300Z,54.60
2018-07-23T13:48:09.764Z,54.50
2018-07-23T13:50:38.213Z,54.60
2018-07-23T13:53:06.835Z,54.80
2018-07-23T13:55:35.321Z,54.70
2018-07-23T13:58:03.774Z,54.20
2018-07-23T14:00:32.476Z,54.60
2018-07-23T14:03:01.385Z,54.60
2018-07-23T14:05:31.617Z,54.40
2018-07-23T14:08:04.499Z,54.40
2018-07-23T14:10:33.375Z,54.20
2018-07-23T14:13:07.734Z,53.70
2018-07-23T14:15:38.446Z,53.70
2018-07-23T14:18:18.787Z,53.50
2018-07-23T14:20:52.698Z,53.60
2018-07-23T14:23:24.702Z,53.60
2018-07-23T14:25:56.117Z,53.50
2018-07-23T14:28:39.384Z,53.80
2018-07-23T14:31:08.066Z,53.70
2018-07-23T14:33:41.561Z,53.70
2018-07-23T14:36:30.592Z,53.70
2018-07-23T14:42:34.441Z,54.60
2018-07-23T14:48:10.366Z,54.00
2018-07-23T14:50:42.403Z,53.90
2018-07-23T14:53:13.699Z,54.00
2018-07-23T14:56:21.811Z,54.10
2018-07-23T14:59:02.530Z,54.00
2018-07-23T15:01:51.182Z,54.00
2018-07-23T15:04:46.548Z,53.70
2018-07-23T15:07:20.956Z,53.60
2018-07-23T15:09:58.890Z,53.50
2018-07-23T15:12:31.200Z,53.40
2018-07-23T15:15:04.581Z,53.30
2018-07-23T15:17:33.078Z,53.30
2018-07-23T15:20:01.773Z,53.50
2018-07-23T15:25:18.772Z,53.60
2018-07-23T15:27:48.667Z,53.60
2018-07-23T15:30:17.341Z,53.30
2018-07-23T15:32:47.901Z,53.50
2018-07-23T15:35:21.184Z,53.50
2018-07-23T15:37:49.784Z,53.70
2018-07-23T15:40:19.128Z,53.60
2018-07-23T15:42:49.711Z,53.60
2018-07-23T15:45:19.902Z,53.40
2018-07-23T15:47:48.272Z,53.10
2018-07-23T15:50:18.079Z,53.70
2018-07-23T15:52:46.596Z,53.20
2018-07-23T15:55:15.961Z,53.20
2018-07-23T15:57:48.546Z,53.80
2018-07-23T16:00:26.919Z,53.30
2018-07-23T16:03:00.637Z,53.40
2018-07-23T16:05:36.313Z,53.20
2018-07-23T16:08:07.731Z,53.10
2018-07-23T16:10:36.529Z,53.20
2018-07-23T16:13:05.042Z,53.40
2018-07-23T16:15:33.855Z,53.50
2018-07-23T16:18:02.516Z,53.40
2018-07-23T16:20:32.261Z,53.20
2018-07-23T16:23:01.168Z,53.10
2018-07-23T16:25:35.806Z,52.90
2018-07-23T16:28:04.471Z,52.80
2018-07-23T16:30:33.176Z,52.70
2018-07-23T16:33:09.168Z,52.80
2018-07-23T16:35:43.266Z,52.90
2018-07-23T16:38:17.692Z,52.90
2018-07-23T16:40:46.555Z,52.80
2018-07-23T16:45:48.057Z,52.90
2018-07-23T16:48:16.485Z,52.90
2018-07-23T16:50:49.952Z,53.20
2018-07-23T16:53:26.316Z,52.90
2018-07-23T16:55:54.893Z,53.00
2018-07-23T16:58:23.328Z,53.20
2018-07-23T17:00:54.901Z,53.10
2018-07-23T17:03:26.230Z,53.20
2018-07-23T17:06:01.259Z,53.20
2018-07-23T17:08:29.994Z,53.30
2018-07-23T17:11:03.853Z,53.40
2018-07-23T17:13:33.599Z,53.40
2018-07-23T17:16:02.032Z,53.60
2018-07-23T17:18:31.966Z,53.40
2018-07-23T17:21:07.727Z,53.30
2018-07-23T17:23:40.965Z,53.70
2018-07-23T17:26:09.420Z,53.90
2018-07-23T17:28:37.769Z,53.80
2018-07-23T17:31:06.783Z,53.70
2018-07-23T17:33:35.966Z,53.90
2018-07-23T17:36:07.420Z,54.20
2018-07-23T17:41:05.998Z,54.30
2018-07-23T17:43:34.377Z,55.00
2018-07-23T17:46:02.851Z,54.40
2018-07-23T17:48:31.228Z,54.60
2018-07-23T17:50:59.823Z,54.70
2018-07-23T17:53:28.172Z,54.90
2018-07-23T17:55:56.537Z,55.00
2018-07-23T17:58:25.072Z,55.20
2018-07-23T18:00:53.404Z,55.40
2018-07-23T18:03:21.827Z,55.50
2018-07-23T18:05:50.208Z,55.40
2018-07-23T18:08:24.437Z,55.50
2018-07-23T18:10:56.637Z,56.20
2018-07-23T18:13:25.024Z,55.60
2018-07-23T18:16:09.714Z,55.60
2018-07-23T18:18:57.639Z,55.80
2018-07-23T18:21:26.396Z,55.90
2018-07-23T18:23:54.772Z,56.00
2018-07-23T18:26:23.256Z,56.10
2018-07-23T18:31:19.709Z,56.20
2018-07-23T18:33:48.263Z,56.20
2018-07-23T18:36:16.930Z,56.30
2018-07-23T18:38:45.422Z,56.40
2018-07-23T18:41:13.821Z,56.60
2018-07-23T18:43:42.253Z,56.60
2018-07-23T18:46:10.662Z,56.70
2018-07-23T18:49:48.995Z,56.80
2018-07-23T18:52:18.367Z,56.90
2018-07-23T18:54:48.083Z,57.20
2018-07-23T18:57:22.658Z,57.40
2018-07-23T18:59:58.535Z,57.50
2018-07-23T19:02:44.706Z,57.60
2018-07-23T19:05:17.272Z,57.60
2018-07-23T19:07:54.887Z,57.60
2018-07-23T19:10:23.467Z,57.60
2018-07-23T19:13:03.274Z,57.60
2018-07-23T19:21:14.527Z,57.80
2018-07-23T19:23:47.842Z,57.90
2018-07-23T19:26:24.778Z,58.00
2018-07-23T19:29:06.280Z,58.10
2018-07-23T19:36:16.867Z,58.30
2018-07-23T19:39:24.243Z,58.30
2018-07-23T19:42:01.860Z,58.50
2018-07-23T20:01:27.926Z,59.00
2018-07-23T20:04:03.955Z,59.20
2018-07-23T20:06:33.698Z,59.20
2018-07-23T20:09:11.390Z,59.30
2018-07-23T20:11:40.077Z,59.40
2018-07-23T20:14:11.966Z,60.10
2018-07-23T20:19:36.359Z,59.80
2018-07-23T20:22:06.498Z,60.00
2018-07-23T20:24:39.519Z,60.10
2018-07-23T20:27:11.914Z,60.10
2018-07-23T20:29:42.831Z,60.40
2018-07-23T20:32:16.330Z,60.60
2018-07-23T20:34:50.781Z,60.60
2018-07-23T20:37:21.650Z,60.80
2018-07-23T20:39:58.289Z,60.90
2018-07-23T20:45:06.173Z,61.30
2018-07-23T20:47:34.866Z,61.30
2018-07-23T20:50:13.661Z,61.80
2018-07-23T20:52:44.350Z,61.50
2018-07-23T20:55:16.083Z,61.60
2018-07-23T20:57:46.733Z,61.70
2018-07-23T21:00:19.523Z,61.60
2018-07-23T21:03:02.535Z,61.70
2018-07-23T21:05:33.211Z,61.80
2018-07-23T21:11:05.611Z,62.00
2018-07-23T21:13:40.696Z,62.30
2018-07-23T21:16:15.725Z,62.40
2018-07-23T21:18:49.455Z,62.30
2018-07-23T21:21:21.699Z,62.50
2018-07-23T21:23:57.850Z,62.60
2018-07-23T21:26:36.915Z,62.70
2018-07-23T21:29:08.254Z,62.80
2018-07-23T21:31:38.348Z,63.00
2018-07-23T21:34:08.869Z,63.00
2018-07-23T21:36:39.988Z,63.20
2018-07-23T21:39:12.364Z,63.20
2018-07-23T21:41:41.612Z,63.20
2018-07-23T21:44:10.469Z,63.40
2018-07-23T21:46:47.310Z,63.30
2018-07-23T21:49:18.526Z,63.50
2018-07-23T21:51:49.400Z,63.60
2018-07-23T21:56:55.689Z,63.50
2018-07-23T21:59:24.257Z,63.80
2018-07-23T22:01:52.628Z,63.80
2018-07-23T22:04:20.961Z,63.90
2018-07-23T22:06:58.976Z,64.10
2018-07-23T22:09:27.356Z,64.00
2018-07-23T22:11:55.727Z,64.10
2018-07-23T22:14:24.133Z,64.20
2018-07-23T22:16:52.672Z,64.20
2018-07-23T22:19:21.034Z,64.30
2018-07-23T22:21:49.405Z,64.40
2018-07-23T22:24:17.869Z,64.50
2018-07-23T22:26:46.533Z,65.30
2018-07-23T22:29:14.954Z,64.60
2018-07-23T22:31:43.458Z,64.60
2018-07-23T22:34:11.897Z,64.70
2018-07-23T22:36:40.244Z,64.70
2018-07-23T22:39:10.169Z,64.80
2018-07-23T22:41:38.877Z,65.00
2018-07-23T22:44:07.241Z,65.00
2018-07-23T22:46:35.957Z,65.20
2018-07-23T22:49:04.298Z,65.20
2018-07-23T22:51:32.619Z,65.30
2018-07-23T22:54:01.012Z,65.30
2018-07-23T22:56:29.380Z,65.40
2018-07-23T22:58:57.698Z,65.50
2018-07-23T23:01:26.140Z,65.50
2018-07-23T23:03:54.530Z,65.50
2018-07-23T23:06:22.885Z,65.50
2018-07-23T23:08:51.324Z,65.60
2018-07-23T23:11:19.678Z,65.70
2018-07-23T23:13:48.052Z,65.80
2018-07-23T23:16:16.393Z,65.80
2018-07-23T23:18:44.877Z,65.90
2018-07-23T23:21:13.235Z,66.70
2018-07-23T23:23:41.596Z,66.00
2018-07-23T23:26:13.814Z,66.10
2018-07-23T23:28:42.257Z,66.00
2018-07-23T23:31:10.640Z,66.10
2018-07-23T23:33:39.068Z,66.20
2018-07-23T23:36:07.395Z,66.20
2018-07-23T23:38:35.792Z,66.30
2018-07-23T23:41:04.173Z,66.30
2018-07-23T23:43:32.539Z,66.90
2018-07-23T23:46:00.915Z,66.40
2018-07-23T23:57:01.126Z,66.70
2018-07-23T23:59:29.507Z,67.10
